Terminal Aerodrome Forecast
Issued by NWS Greer, SC

Home | Current Version | Previous Version | Text Only | Print | Product List | Glossary On
Versions: 1 2 3 4 5 6 7 8 9 10 11 12 13
665
FTUS42 KGSP 302339
TAFGSP
TAF
KGSP 302339Z 0100/0124 09006KT P6SM VCSH BKN035 OVC050
     FM010300 11006KT 4SM -SHRA BR VCTS OVC012CB
      TEMPO 0103/0107 2SM -TSRA BR OVC008CB
     FM010700 15008KT 3SM -SHRA BR OVC003
     FM011200 18007KT 3SM BR OVC008
     FM011400 20008KT P6SM OVC030 PROB30 0114/0118 3SM -TSRA BR
      OVC010CB
     FM011800 22011KT P6SM -SHRA VCTS BKN050CB=

USA.gov is the U.S. government's official web portal to all federal, state and local government web resources and services.